sensor_id;sensor_type;location;lat;lon;timestamp;P1;durP1;ratioP1;P2;durP2;ratioP2
5841;SDS011;2947;52.276;9.946;2023-02-01T00:02:06;12.43;;;2.77;;
5841;SDS011;2947;52.276;9.946;2023-02-01T00:04:34;11.87;;;2.37;;
5841;SDS011;2947;52.276;9.946;2023-02-01T00:07:00;15.13;;;2.87;;
5841;SDS011;2947;52.276;9.946;2023-02-01T00:09:26;12.83;;;2.07;;
5841;SDS011;2947;52.276;9.946;2023-02-01T00:11:52;14.93;;;3.00;;
5841;SDS011;2947;52.276;9.946;2023-02-01T00:14:17;21.07;;;3.60;;
5841;SDS011;2947;52.276;9.946;2023-02-01T00:16:43;16.47;;;2.43;;
5841;SDS011;2947;52.276;9.946;2023-02-01T00:19:10;13.83;;;2.00;;
5841;SDS011;2947;52.276;9.946;2023-02-01T00:21:38;15.33;;;2.63;;
5841;SDS011;2947;52.276;9.946;2023-02-01T00:24:05;28.20;;;3.00;;
5841;SDS011;2947;52.276;9.946;2023-02-01T00:26:32;24.70;;;4.40;;
5841;SDS011;2947;52.276;9.946;2023-02-01T00:29:03;16.10;;;2.60;;
5841;SDS011;2947;52.276;9.946;2023-02-01T00:31:32;21.93;;;2.43;;
5841;SDS011;2947;52.276;9.946;2023-02-01T00:33:58;21.90;;;4.40;;
5841;SDS011;2947;52.276;9.946;2023-02-01T00:36:23;13.80;;;2.37;;
5841;SDS011;2947;52.276;9.946;2023-02-01T00:38:49;11.40;;;2.53;;
5841;SDS011;2947;52.276;9.946;2023-02-01T00:41:19;19.07;;;3.30;;
5841;SDS011;2947;52.276;9.946;2023-02-01T00:43:46;13.77;;;2.80;;
5841;SDS011;2947;52.276;9.946;2023-02-01T00:46:13;17.03;;;2.33;;
5841;SDS011;2947;52.276;9.946;2023-02-01T00:48:41;13.17;;;2.37;;
5841;SDS011;2947;52.276;9.946;2023-02-01T00:51:12;24.13;;;3.50;;
5841;SDS011;2947;52.276;9.946;2023-02-01T00:53:41;13.57;;;2.40;;
5841;SDS011;2947;52.276;9.946;2023-02-01T00:56:07;13.17;;;2.83;;
5841;SDS011;2947;52.276;9.946;2023-02-01T00:58:36;22.37;;;3.60;;
5841;SDS011;2947;52.276;9.946;2023-02-01T01:01:03;19.03;;;2.83;;
5841;SDS011;2947;52.276;9.946;2023-02-01T01:03:34;12.10;;;2.60;;
5841;SDS011;2947;52.276;9.946;2023-02-01T01:06:08;15.00;;;3.37;;
5841;SDS011;2947;52.276;9.946;2023-02-01T01:08:37;11.70;;;2.70;;
5841;SDS011;2947;52.276;9.946;2023-02-01T01:11:08;17.57;;;2.50;;
5841;SDS011;2947;52.276;9.946;2023-02-01T01:13:37;15.40;;;2.30;;
5841;SDS011;2947;52.276;9.946;2023-02-01T01:16:04;15.93;;;2.87;;
5841;SDS011;2947;52.276;9.946;2023-02-01T01:18:32;8.33;;;2.00;;
5841;SDS011;2947;52.276;9.946;2023-02-01T01:21:00;21.50;;;2.90;;
5841;SDS011;2947;52.276;9.946;2023-02-01T01:23:27;15.93;;;2.40;;
5841;SDS011;2947;52.276;9.946;2023-02-01T01:25:53;16.77;;;3.03;;
5841;SDS011;2947;52.276;9.946;2023-02-01T01:28:19;11.83;;;2.47;;
5841;SDS011;2947;52.276;9.946;2023-02-01T01:30:44;11.43;;;2.27;;
5841;SDS011;2947;52.276;9.946;2023-02-01T01:33:11;19.43;;;2.83;;
5841;SDS011;2947;52.276;9.946;2023-02-01T01:35:37;14.17;;;3.23;;
5841;SDS011;2947;52.276;9.946;2023-02-01T01:38:04;16.13;;;2.20;;
5841;SDS011;2947;52.276;9.946;2023-02-01T01:40:30;17.73;;;3.10;;
5841;SDS011;2947;52.276;9.946;2023-02-01T01:42:59;14.70;;;2.50;;
5841;SDS011;2947;52.276;9.946;2023-02-01T01:45:32;17.23;;;2.77;;
5841;SDS011;2947;52.276;9.946;2023-02-01T01:48:01;19.97;;;3.37;;
5841;SDS011;2947;52.276;9.946;2023-02-01T01:50:39;19.93;;;2.83;;
5841;SDS011;2947;52.276;9.946;2023-02-01T01:53:13;18.47;;;2.47;;
5841;SDS011;2947;52.276;9.946;2023-02-01T01:55:45;18.67;;;3.43;;
5841;SDS011;2947;52.276;9.946;2023-02-01T01:58:18;14.60;;;3.10;;
5841;SDS011;2947;52.276;9.946;2023-02-01T02:00:47;20.53;;;3.70;;
5841;SDS011;2947;52.276;9.946;2023-02-01T02:03:20;20.60;;;3.53;;
5841;SDS011;2947;52.276;9.946;2023-02-01T02:06:00;16.87;;;2.80;;
5841;SDS011;2947;52.276;9.946;2023-02-01T02:08:29;16.33;;;2.30;;
5841;SDS011;2947;52.276;9.946;2023-02-01T02:10:55;16.00;;;3.10;;
5841;SDS011;2947;52.276;9.946;2023-02-01T02:13:24;20.70;;;2.90;;
5841;SDS011;2947;52.276;9.946;2023-02-01T02:19:07;16.17;;;3.13;;
5841;SDS011;2947;52.276;9.946;2023-02-01T02:28:00;22.67;;;3.50;;
5841;SDS011;2947;52.276;9.946;2023-02-01T02:30:35;17.93;;;2.50;;
5841;SDS011;2947;52.276;9.946;2023-02-01T02:42:20;20.90;;;3.10;;
5841;SDS011;2947;52.276;9.946;2023-02-01T02:45:47;18.93;;;2.80;;
5841;SDS011;2947;52.276;9.946;2023-02-01T02:49:10;19.27;;;2.80;;
5841;SDS011;2947;52.276;9.946;2023-02-01T02:51:46;15.20;;;2.97;;
5841;SDS011;2947;52.276;9.946;2023-02-01T02:54:41;23.63;;;2.63;;
5841;SDS011;2947;52.276;9.946;2023-02-01T02:57:13;17.07;;;2.60;;
5841;SDS011;2947;52.276;9.946;2023-02-01T03:00:09;21.90;;;4.30;;
5841;SDS011;2947;52.276;9.946;2023-02-01T03:02:58;9.40;;;2.20;;
5841;SDS011;2947;52.276;9.946;2023-02-01T03:05:45;15.40;;;2.73;;
5841;SDS011;2947;52.276;9.946;2023-02-01T03:08:19;27.33;;;2.83;;
5841;SDS011;2947;52.276;9.946;2023-02-01T03:16:24;16.43;;;2.70;;
5841;SDS011;2947;52.276;9.946;2023-02-01T03:19:01;16.23;;;3.07;;
5841;SDS011;2947;52.276;9.946;2023-02-01T03:24:16;14.40;;;2.60;;
5841;SDS011;2947;52.276;9.946;2023-02-01T03:27:01;14.87;;;2.90;;
5841;SDS011;2947;52.276;9.946;2023-02-01T03:29:41;15.00;;;3.13;;
5841;SDS011;2947;52.276;9.946;2023-02-01T03:32:37;20.60;;;3.03;;
5841;SDS011;2947;52.276;9.946;2023-02-01T03:35:28;17.10;;;3.37;;
5841;SDS011;2947;52.276;9.946;2023-02-01T03:38:18;19.90;;;2.87;;
5841;SDS011;2947;52.276;9.946;2023-02-01T03:49:26;26.30;;;3.00;;
5841;SDS011;2947;52.276;9.946;2023-02-01T03:52:00;17.10;;;2.97;;
5841;SDS011;2947;52.276;9.946;2023-02-01T03:54:29;14.73;;;2.80;;
5841;SDS011;2947;52.276;9.946;2023-02-01T03:56:57;23.07;;;3.90;;
5841;SDS011;2947;52.276;9.946;2023-02-01T03:59:32;20.87;;;3.80;;
5841;SDS011;2947;52.276;9.946;2023-02-01T04:01:58;13.90;;;2.73;;
5841;SDS011;2947;52.276;9.946;2023-02-01T04:04:24;19.80;;;3.70;;
5841;SDS011;2947;52.276;9.946;2023-02-01T04:06:50;23.03;;;3.60;;
5841;SDS011;2947;52.276;9.946;2023-02-01T04:09:16;19.00;;;3.43;;
5841;SDS011;2947;52.276;9.946;2023-02-01T04:11:43;15.27;;;3.83;;
5841;SDS011;2947;52.276;9.946;2023-02-01T04:14:08;15.03;;;3.10;;
5841;SDS011;2947;52.276;9.946;2023-02-01T04:16:34;18.10;;;3.30;;
5841;SDS011;2947;52.276;9.946;2023-02-01T04:19:00;14.83;;;3.87;;
5841;SDS011;2947;52.276;9.946;2023-02-01T04:21:26;22.77;;;4.20;;
5841;SDS011;2947;52.276;9.946;2023-02-01T04:23:54;19.67;;;3.00;;
5841;SDS011;2947;52.276;9.946;2023-02-01T04:26:20;20.27;;;3.90;;
5841;SDS011;2947;52.276;9.946;2023-02-01T04:28:46;19.27;;;2.77;;
5841;SDS011;2947;52.276;9.946;2023-02-01T04:31:13;20.33;;;3.93;;
5841;SDS011;2947;52.276;9.946;2023-02-01T04:33:40;13.67;;;3.30;;
5841;SDS011;2947;52.276;9.946;2023-02-01T04:36:06;15.37;;;3.00;;
5841;SDS011;2947;52.276;9.946;2023-02-01T04:38:32;12.73;;;3.00;;
5841;SDS011;2947;52.276;9.946;2023-02-01T04:40:58;21.33;;;3.83;;
5841;SDS011;2947;52.276;9.946;2023-02-01T04:43:24;12.30;;;2.97;;
5841;SDS011;2947;52.276;9.946;2023-02-01T04:45:52;22.47;;;3.93;;
5841;SDS011;2947;52.276;9.946;2023-02-01T04:48:19;20.20;;;3.70;;
5841;SDS011;2947;52.276;9.946;2023-02-01T04:50:46;16.03;;;3.20;;
5841;SDS011;2947;52.276;9.946;2023-02-01T04:53:16;38.00;;;3.70;;
5841;SDS011;2947;52.276;9.946;2023-02-01T04:55:42;17.23;;;3.80;;
5841;SDS011;2947;52.276;9.946;2023-02-01T04:58:09;14.10;;;3.37;;
5841;SDS011;2947;52.276;9.946;2023-02-01T05:00:35;9.60;;;3.90;;
5841;SDS011;2947;52.276;9.946;2023-02-01T05:03:02;24.27;;;3.43;;
5841;SDS011;2947;52.276;9.946;2023-02-01T05:05:28;12.00;;;3.53;;
5841;SDS011;2947;52.276;9.946;2023-02-01T05:07:56;14.23;;;4.50;;
5841;SDS011;2947;52.276;9.946;2023-02-01T05:10:21;14.03;;;2.90;;
5841;SDS011;2947;52.276;9.946;2023-02-01T05:12:47;18.33;;;2.67;;
5841;SDS011;2947;52.276;9.946;2023-02-01T05:15:31;27.83;;;3.70;;
5841;SDS011;2947;52.276;9.946;2023-02-01T05:17:58;19.83;;;2.90;;
5841;SDS011;2947;52.276;9.946;2023-02-01T05:20:24;11.30;;;2.90;;
5841;SDS011;2947;52.276;9.946;2023-02-01T05:22:51;17.57;;;3.37;;
5841;SDS011;2947;52.276;9.946;2023-02-01T05:25:17;18.77;;;3.20;;
5841;SDS011;2947;52.276;9.946;2023-02-01T05:27:43;24.57;;;4.37;;
5841;SDS011;2947;52.276;9.946;2023-02-01T05:30:09;14.27;;;3.37;;
5841;SDS011;2947;52.276;9.946;2023-02-01T05:32:36;19.70;;;3.17;;
5841;SDS011;2947;52.276;9.946;2023-02-01T05:35:01;20.77;;;3.80;;
5841;SDS011;2947;52.276;9.946;2023-02-01T05:37:28;14.07;;;2.90;;
5841;SDS011;2947;52.276;9.946;2023-02-01T05:39:54;8.77;;;3.10;;
5841;SDS011;2947;52.276;9.946;2023-02-01T05:42:20;15.17;;;3.50;;
5841;SDS011;2947;52.276;9.946;2023-02-01T05:44:45;21.27;;;4.17;;
5841;SDS011;2947;52.276;9.946;2023-02-01T05:47:11;16.77;;;2.83;;
5841;SDS011;2947;52.276;9.946;2023-02-01T05:49:37;16.17;;;3.80;;
5841;SDS011;2947;52.276;9.946;2023-02-01T05:52:03;19.27;;;3.43;;
5841;SDS011;2947;52.276;9.946;2023-02-01T05:54:29;16.53;;;4.07;;
5841;SDS011;2947;52.276;9.946;2023-02-01T05:56:55;12.20;;;2.63;;
5841;SDS011;2947;52.276;9.946;2023-02-01T05:59:20;13.83;;;4.70;;
5841;SDS011;2947;52.276;9.946;2023-02-01T06:01:46;11.90;;;2.77;;
5841;SDS011;2947;52.276;9.946;2023-02-01T06:04:12;16.03;;;2.87;;
5841;SDS011;2947;52.276;9.946;2023-02-01T06:06:37;15.80;;;3.10;;
5841;SDS011;2947;52.276;9.946;2023-02-01T06:09:03;12.60;;;3.13;;
5841;SDS011;2947;52.276;9.946;2023-02-01T06:11:29;21.00;;;2.90;;
5841;SDS011;2947;52.276;9.946;2023-02-01T06:13:57;19.57;;;3.03;;
5841;SDS011;2947;52.276;9.946;2023-02-01T06:16:23;14.63;;;2.50;;
5841;SDS011;2947;52.276;9.946;2023-02-01T06:18:48;19.87;;;2.83;;
5841;SDS011;2947;52.276;9.946;2023-02-01T06:21:14;14.50;;;2.57;;
5841;SDS011;2947;52.276;9.946;2023-02-01T06:23:48;13.30;;;2.57;;
5841;SDS011;2947;52.276;9.946;2023-02-01T06:26:18;12.10;;;2.73;;
5841;SDS011;2947;52.276;9.946;2023-02-01T06:28:44;12.40;;;2.70;;
5841;SDS011;2947;52.276;9.946;2023-02-01T06:31:10;12.73;;;2.83;;
5841;SDS011;2947;52.276;9.946;2023-02-01T06:33:38;11.37;;;2.70;;
5841;SDS011;2947;52.276;9.946;2023-02-01T06:36:04;18.10;;;2.87;;
5841;SDS011;2947;52.276;9.946;2023-02-01T06:38:33;11.77;;;1.63;;
5841;SDS011;2947;52.276;9.946;2023-02-01T06:41:00;17.50;;;2.77;;
5841;SDS011;2947;52.276;9.946;2023-02-01T06:43:26;17.33;;;2.80;;
5841;SDS011;2947;52.276;9.946;2023-02-01T06:45:58;17.50;;;2.37;;
5841;SDS011;2947;52.276;9.946;2023-02-01T06:48:29;14.40;;;3.37;;
5841;SDS011;2947;52.276;9.946;2023-02-01T06:50:56;5.90;;;1.93;;
5841;SDS011;2947;52.276;9.946;2023-02-01T06:53:22;11.03;;;2.40;;
5841;SDS011;2947;52.276;9.946;2023-02-01T06:55:54;8.60;;;1.83;;
5841;SDS011;2947;52.276;9.946;2023-02-01T06:58:24;7.17;;;2.20;;
5841;SDS011;2947;52.276;9.946;2023-02-01T07:00:54;6.57;;;1.90;;
5841;SDS011;2947;52.276;9.946;2023-02-01T07:03:19;12.53;;;2.73;;
5841;SDS011;2947;52.276;9.946;2023-02-01T07:05:45;5.93;;;1.77;;
5841;SDS011;2947;52.276;9.946;2023-02-01T07:08:11;18.13;;;2.13;;
5841;SDS011;2947;52.276;9.946;2023-02-01T07:10:37;8.03;;;2.03;;
5841;SDS011;2947;52.276;9.946;2023-02-01T07:13:02;8.80;;;2.30;;
5841;SDS011;2947;52.276;9.946;2023-02-01T07:15:29;8.90;;;2.13;;
5841;SDS011;2947;52.276;9.946;2023-02-01T07:17:55;8.53;;;1.90;;
5841;SDS011;2947;52.276;9.946;2023-02-01T07:20:22;8.33;;;2.83;;
5841;SDS011;2947;52.276;9.946;2023-02-01T07:22:48;11.47;;;1.97;;
5841;SDS011;2947;52.276;9.946;2023-02-01T07:25:19;12.70;;;2.03;;
5841;SDS011;2947;52.276;9.946;2023-02-01T07:27:45;11.57;;;1.73;;
5841;SDS011;2947;52.276;9.946;2023-02-01T07:30:11;8.50;;;1.60;;
5841;SDS011;2947;52.276;9.946;2023-02-01T07:32:37;11.40;;;2.50;;
5841;SDS011;2947;52.276;9.946;2023-02-01T07:35:03;8.47;;;2.80;;
5841;SDS011;2947;52.276;9.946;2023-02-01T07:37:29;19.57;;;3.87;;
5841;SDS011;2947;52.276;9.946;2023-02-01T07:39:55;14.73;;;2.77;;
5841;SDS011;2947;52.276;9.946;2023-02-01T07:42:22;20.33;;;2.93;;
5841;SDS011;2947;52.276;9.946;2023-02-01T07:44:48;19.63;;;2.57;;
5841;SDS011;2947;52.276;9.946;2023-02-01T07:47:14;13.27;;;3.03;;
5841;SDS011;2947;52.276;9.946;2023-02-01T07:49:39;15.63;;;2.70;;
5841;SDS011;2947;52.276;9.946;2023-02-01T07:52:06;10.23;;;2.63;;
5841;SDS011;2947;52.276;9.946;2023-02-01T07:54:32;18.80;;;2.80;;
5841;SDS011;2947;52.276;9.946;2023-02-01T07:56:58;13.30;;;2.77;;
5841;SDS011;2947;52.276;9.946;2023-02-01T07:59:24;14.83;;;2.70;;
5841;SDS011;2947;52.276;9.946;2023-02-01T08:01:50;17.20;;;2.70;;
5841;SDS011;2947;52.276;9.946;2023-02-01T08:04:16;10.00;;;2.20;;
5841;SDS011;2947;52.276;9.946;2023-02-01T08:06:41;12.40;;;2.50;;
5841;SDS011;2947;52.276;9.946;2023-02-01T08:09:07;10.30;;;1.73;;
5841;SDS011;2947;52.276;9.946;2023-02-01T08:11:33;10.03;;;2.20;;
5841;SDS011;2947;52.276;9.946;2023-02-01T08:14:01;11.77;;;2.70;;
5841;SDS011;2947;52.276;9.946;2023-02-01T08:16:27;15.90;;;2.83;;
5841;SDS011;2947;52.276;9.946;2023-02-01T08:18:53;13.10;;;2.77;;
5841;SDS011;2947;52.276;9.946;2023-02-01T08:21:20;13.47;;;2.60;;
5841;SDS011;2947;52.276;9.946;2023-02-01T08:23:49;8.30;;;2.40;;
5841;SDS011;2947;52.276;9.946;2023-02-01T08:26:17;13.73;;;2.07;;
5841;SDS011;2947;52.276;9.946;2023-02-01T08:28:45;7.60;;;1.97;;
5841;SDS011;2947;52.276;9.946;2023-02-01T08:31:15;9.07;;;2.07;;
5841;SDS011;2947;52.276;9.946;2023-02-01T08:33:48;16.20;;;2.67;;
5841;SDS011;2947;52.276;9.946;2023-02-01T08:36:20;13.03;;;2.40;;
5841;SDS011;2947;52.276;9.946;2023-02-01T08:38:47;19.10;;;3.00;;
5841;SDS011;2947;52.276;9.946;2023-02-01T08:41:15;17.73;;;2.17;;
5841;SDS011;2947;52.276;9.946;2023-02-01T08:43:44;14.57;;;2.30;;
5841;SDS011;2947;52.276;9.946;2023-02-01T08:46:10;10.10;;;1.50;;
5841;SDS011;2947;52.276;9.946;2023-02-01T08:48:36;22.27;;;2.33;;
5841;SDS011;2947;52.276;9.946;2023-02-01T08:51:07;20.40;;;2.30;;
5841;SDS011;2947;52.276;9.946;2023-02-01T08:53:35;16.77;;;2.40;;
5841;SDS011;2947;52.276;9.946;2023-02-01T08:56:05;14.10;;;2.07;;
5841;SDS011;2947;52.276;9.946;2023-02-01T08:58:32;9.73;;;1.93;;
5841;SDS011;2947;52.276;9.946;2023-02-01T09:01:02;15.93;;;2.23;;
5841;SDS011;2947;52.276;9.946;2023-02-01T09:03:33;11.30;;;2.87;;
5841;SDS011;2947;52.276;9.946;2023-02-01T09:06:06;17.90;;;2.53;;
5841;SDS011;2947;52.276;9.946;2023-02-01T09:08:35;10.80;;;2.20;;
5841;SDS011;2947;52.276;9.946;2023-02-01T09:11:03;14.40;;;4.23;;
5841;SDS011;2947;52.276;9.946;2023-02-01T09:13:32;19.90;;;2.60;;
5841;SDS011;2947;52.276;9.946;2023-02-01T09:15:59;10.37;;;2.40;;
5841;SDS011;2947;52.276;9.946;2023-02-01T09:18:25;8.20;;;1.80;;
5841;SDS011;2947;52.276;9.946;2023-02-01T09:20:53;15.43;;;2.90;;
5841;SDS011;2947;52.276;9.946;2023-02-01T09:23:19;12.10;;;2.30;;
5841;SDS011;2947;52.276;9.946;2023-02-01T09:25:47;5.60;;;1.70;;
5841;SDS011;2947;52.276;9.946;2023-02-01T09:28:15;8.40;;;1.90;;
5841;SDS011;2947;52.276;9.946;2023-02-01T09:30:41;14.90;;;3.90;;
5841;SDS011;2947;52.276;9.946;2023-02-01T09:33:07;19.07;;;3.20;;
5841;SDS011;2947;52.276;9.946;2023-02-01T09:35:33;9.90;;;2.17;;
5841;SDS011;2947;52.276;9.946;2023-02-01T09:37:59;23.00;;;2.40;;
5841;SDS011;2947;52.276;9.946;2023-02-01T09:40:26;14.97;;;2.43;;
5841;SDS011;2947;52.276;9.946;2023-02-01T09:48:22;10.57;;;1.90;;
5841;SDS011;2947;52.276;9.946;2023-02-01T09:50:55;14.47;;;2.20;;
5841;SDS011;2947;52.276;9.946;2023-02-01T09:53:34;12.73;;;2.10;;
5841;SDS011;2947;52.276;9.946;2023-02-01T09:56:12;9.40;;;1.97;;
5841;SDS011;2947;52.276;9.946;2023-02-01T09:58:51;11.40;;;2.60;;
5841;SDS011;2947;52.276;9.946;2023-02-01T10:01:44;13.50;;;2.53;;
5841;SDS011;2947;52.276;9.946;2023-02-01T10:04:11;15.47;;;2.30;;
5841;SDS011;2947;52.276;9.946;2023-02-01T10:12:36;6.50;;;1.77;;
5841;SDS011;2947;52.276;9.946;2023-02-01T10:21:23;16.07;;;2.30;;
5841;SDS011;2947;52.276;9.946;2023-02-01T10:27:14;27.23;;;2.53;;
5841;SDS011;2947;52.276;9.946;2023-02-01T10:29:48;13.03;;;2.47;;
5841;SDS011;2947;52.276;9.946;2023-02-01T10:32:23;13.63;;;2.33;;
5841;SDS011;2947;52.276;9.946;2023-02-01T10:34:59;14.30;;;2.50;;
5841;SDS011;2947;52.276;9.946;2023-02-01T10:37:42;17.43;;;2.23;;
5841;SDS011;2947;52.276;9.946;2023-02-01T10:42:46;10.50;;;3.57;;
5841;SDS011;2947;52.276;9.946;2023-02-01T10:45:17;14.47;;;2.37;;
5841;SDS011;2947;52.276;9.946;2023-02-01T10:47:46;9.03;;;2.40;;
5841;SDS011;2947;52.276;9.946;2023-02-01T10:50:17;12.40;;;2.30;;
5841;SDS011;2947;52.276;9.946;2023-02-01T10:53:15;8.73;;;2.13;;
5841;SDS011;2947;52.276;9.946;2023-02-01T10:56:11;21.23;;;2.33;;
5841;SDS011;2947;52.276;9.946;2023-02-01T10:58:45;12.70;;;1.93;;
5841;SDS011;2947;52.276;9.946;2023-02-01T11:01:22;13.20;;;2.13;;
5841;SDS011;2947;52.276;9.946;2023-02-01T11:04:08;10.90;;;2.60;;
5841;SDS011;2947;52.276;9.946;2023-02-01T11:06:44;14.17;;;2.50;;
5841;SDS011;2947;52.276;9.946;2023-02-01T11:09:47;8.13;;;2.10;;
5841;SDS011;2947;52.276;9.946;2023-02-01T11:12:23;17.20;;;3.60;;
5841;SDS011;2947;52.276;9.946;2023-02-01T11:15:02;11.90;;;2.67;;
5841;SDS011;2947;52.276;9.946;2023-02-01T11:17:46;9.53;;;2.23;;
5841;SDS011;2947;52.276;9.946;2023-02-01T11:20:33;16.33;;;3.13;;
5841;SDS011;2947;52.276;9.946;2023-02-01T11:23:04;14.60;;;2.13;;
5841;SDS011;2947;52.276;9.946;2023-02-01T11:25:35;12.60;;;2.80;;
5841;SDS011;2947;52.276;9.946;2023-02-01T11:28:01;12.40;;;2.30;;
5841;SDS011;2947;52.276;9.946;2023-02-01T11:30:38;13.30;;;2.23;;
5841;SDS011;2947;52.276;9.946;2023-02-01T11:33:07;10.30;;;2.50;;
5841;SDS011;2947;52.276;9.946;2023-02-01T11:35:52;17.27;;;2.30;;
5841;SDS011;2947;52.276;9.946;2023-02-01T11:38:23;13.90;;;2.37;;
5841;SDS011;2947;52.276;9.946;2023-02-01T11:43:55;15.13;;;2.20;;
5841;SDS011;2947;52.276;9.946;2023-02-01T11:46:31;15.33;;;2.37;;
5841;SDS011;2947;52.276;9.946;2023-02-01T11:49:20;10.73;;;2.80;;
5841;SDS011;2947;52.276;9.946;2023-02-01T11:52:00;11.37;;;2.30;;
5841;SDS011;2947;52.276;9.946;2023-02-01T11:58:06;15.13;;;3.57;;
5841;SDS011;2947;52.276;9.946;2023-02-01T12:26:38;19.13;;;2.40;;
5841;SDS011;2947;52.276;9.946;2023-02-01T12:39:32;11.43;;;2.53;;
5841;SDS011;2947;52.276;9.946;2023-02-01T12:43:09;14.60;;;2.40;;
5841;SDS011;2947;52.276;9.946;2023-02-01T12:45:42;12.30;;;2.33;;
5841;SDS011;2947;52.276;9.946;2023-02-01T12:48:19;11.90;;;2.43;;
5841;SDS011;2947;52.276;9.946;2023-02-01T12:51:19;13.70;;;1.93;;
5841;SDS011;2947;52.276;9.946;2023-02-01T12:56:52;16.93;;;2.23;;
5841;SDS011;2947;52.276;9.946;2023-02-01T12:59:27;14.17;;;3.13;;
5841;SDS011;2947;52.276;9.946;2023-02-01T13:02:15;7.00;;;2.00;;
5841;SDS011;2947;52.276;9.946;2023-02-01T13:04:56;12.97;;;1.97;;
5841;SDS011;2947;52.276;9.946;2023-02-01T13:07:41;11.47;;;2.67;;
5841;SDS011;2947;52.276;9.946;2023-02-01T13:13:11;7.90;;;2.20;;
5841;SDS011;2947;52.276;9.946;2023-02-01T13:15:49;8.47;;;1.57;;
5841;SDS011;2947;52.276;9.946;2023-02-01T13:18:39;4.90;;;1.10;;
5841;SDS011;2947;52.276;9.946;2023-02-01T13:21:20;5.90;;;1.70;;
5841;SDS011;2947;52.276;9.946;2023-02-01T13:23:52;9.33;;;2.60;;
5841;SDS011;2947;52.276;9.946;2023-02-01T13:26:18;11.20;;;2.00;;
5841;SDS011;2947;52.276;9.946;2023-02-01T13:28:45;11.63;;;1.47;;
5841;SDS011;2947;52.276;9.946;2023-02-01T13:31:37;8.53;;;2.43;;
5841;SDS011;2947;52.276;9.946;2023-02-01T13:43:19;11.17;;;2.17;;
5841;SDS011;2947;52.276;9.946;2023-02-01T13:45:53;3.00;;;1.10;;
5841;SDS011;2947;52.276;9.946;2023-02-01T13:48:24;5.63;;;0.87;;
5841;SDS011;2947;52.276;9.946;2023-02-01T13:51:01;2.63;;;0.60;;
5841;SDS011;2947;52.276;9.946;2023-02-01T13:53:31;1.60;;;0.60;;
5841;SDS011;2947;52.276;9.946;2023-02-01T13:58:38;1.50;;;0.60;;
5841;SDS011;2947;52.276;9.946;2023-02-01T14:09:16;6.43;;;1.00;;
5841;SDS011;2947;52.276;9.946;2023-02-01T14:11:58;1.60;;;0.80;;
5841;SDS011;2947;52.276;9.946;2023-02-01T14:15:17;1.30;;;0.40;;
5841;SDS011;2947;52.276;9.946;2023-02-01T14:17:49;1.10;;;0.40;;
5841;SDS011;2947;52.276;9.946;2023-02-01T14:23:15;3.10;;;0.60;;
5841;SDS011;2947;52.276;9.946;2023-02-01T14:25:47;1.60;;;0.50;;
5841;SDS011;2947;52.276;9.946;2023-02-01T14:28:28;1.40;;;0.40;;
5841;SDS011;2947;52.276;9.946;2023-02-01T14:30:56;1.40;;;0.50;;
5841;SDS011;2947;52.276;9.946;2023-02-01T14:33:24;1.73;;;0.80;;
5841;SDS011;2947;52.276;9.946;2023-02-01T14:36:09;1.80;;;0.40;;
5841;SDS011;2947;52.276;9.946;2023-02-01T14:38:38;1.10;;;0.40;;
5841;SDS011;2947;52.276;9.946;2023-02-01T14:41:32;2.90;;;0.60;;
5841;SDS011;2947;52.276;9.946;2023-02-01T14:49:47;1.40;;;0.70;;
5841;SDS011;2947;52.276;9.946;2023-02-01T14:52:36;1.40;;;0.50;;
5841;SDS011;2947;52.276;9.946;2023-02-01T14:55:35;2.53;;;1.00;;
5841;SDS011;2947;52.276;9.946;2023-02-01T15:07:03;3.37;;;0.80;;
5841;SDS011;2947;52.276;9.946;2023-02-01T15:09:41;2.70;;;0.63;;
5841;SDS011;2947;52.276;9.946;2023-02-01T15:14:43;4.17;;;1.07;;
5841;SDS011;2947;52.276;9.946;2023-02-01T15:19:58;3.93;;;1.00;;
5841;SDS011;2947;52.276;9.946;2023-02-01T15:22:28;3.20;;;0.80;;
5841;SDS011;2947;52.276;9.946;2023-02-01T15:24:57;10.73;;;1.00;;
5841;SDS011;2947;52.276;9.946;2023-02-01T15:27:28;4.70;;;1.10;;
5841;SDS011;2947;52.276;9.946;2023-02-01T15:30:05;3.00;;;0.70;;
5841;SDS011;2947;52.276;9.946;2023-02-01T15:33:02;2.43;;;0.60;;
5841;SDS011;2947;52.276;9.946;2023-02-01T15:35:50;1.80;;;0.80;;
5841;SDS011;2947;52.276;9.946;2023-02-01T15:40:54;1.60;;;0.70;;
5841;SDS011;2947;52.276;9.946;2023-02-01T15:43:36;6.60;;;1.40;;
5841;SDS011;2947;52.276;9.946;2023-02-01T15:46:38;7.73;;;1.50;;
5841;SDS011;2947;52.276;9.946;2023-02-01T15:49:27;6.37;;;1.40;;
5841;SDS011;2947;52.276;9.946;2023-02-01T15:51:57;10.37;;;1.20;;
5841;SDS011;2947;52.276;9.946;2023-02-01T15:54:27;3.83;;;1.00;;
5841;SDS011;2947;52.276;9.946;2023-02-01T15:57:07;5.00;;;1.57;;
5841;SDS011;2947;52.276;9.946;2023-02-01T15:59:37;5.80;;;1.23;;
5841;SDS011;2947;52.276;9.946;2023-02-01T16:05:25;4.40;;;1.20;;
5841;SDS011;2947;52.276;9.946;2023-02-01T16:08:20;8.43;;;1.50;;
5841;SDS011;2947;52.276;9.946;2023-02-01T16:10:49;6.07;;;1.47;;
5841;SDS011;2947;52.276;9.946;2023-02-01T16:13:19;8.07;;;1.27;;
5841;SDS011;2947;52.276;9.946;2023-02-01T16:15:45;7.93;;;1.50;;
5841;SDS011;2947;52.276;9.946;2023-02-01T16:18:13;8.50;;;1.13;;
5841;SDS011;2947;52.276;9.946;2023-02-01T16:20:39;6.33;;;1.33;;
5841;SDS011;2947;52.276;9.946;2023-02-01T16:23:07;8.00;;;1.77;;
5841;SDS011;2947;52.276;9.946;2023-02-01T16:25:34;11.93;;;1.50;;
5841;SDS011;2947;52.276;9.946;2023-02-01T16:28:05;11.40;;;1.73;;
5841;SDS011;2947;52.276;9.946;2023-02-01T16:30:31;8.67;;;1.10;;
5841;SDS011;2947;52.276;9.946;2023-02-01T16:32:59;8.73;;;1.40;;
5841;SDS011;2947;52.276;9.946;2023-02-01T16:35:33;9.03;;;1.40;;
5841;SDS011;2947;52.276;9.946;2023-02-01T16:38:05;4.77;;;1.20;;
5841;SDS011;2947;52.276;9.946;2023-02-01T16:40:40;7.90;;;1.43;;
5841;SDS011;2947;52.276;9.946;2023-02-01T16:43:15;15.50;;;2.27;;
5841;SDS011;2947;52.276;9.946;2023-02-01T16:45:41;12.75;;;2.22;;
5841;SDS011;2947;52.276;9.946;2023-02-01T16:50:49;7.97;;;1.83;;
5841;SDS011;2947;52.276;9.946;2023-02-01T16:53:20;6.47;;;1.50;;
5841;SDS011;2947;52.276;9.946;2023-02-01T16:55:47;13.00;;;1.80;;
5841;SDS011;2947;52.276;9.946;2023-02-01T16:58:14;12.03;;;2.03;;
5841;SDS011;2947;52.276;9.946;2023-02-01T17:00:42;18.73;;;2.70;;
5841;SDS011;2947;52.276;9.946;2023-02-01T17:03:09;9.83;;;2.20;;
5841;SDS011;2947;52.276;9.946;2023-02-01T17:05:49;7.50;;;1.80;;
5841;SDS011;2947;52.276;9.946;2023-02-01T17:08:19;20.90;;;2.47;;
5841;SDS011;2947;52.276;9.946;2023-02-01T17:10:54;10.03;;;1.57;;
5841;SDS011;2947;52.276;9.946;2023-02-01T17:13:20;11.60;;;2.60;;
5841;SDS011;2947;52.276;9.946;2023-02-01T17:15:50;13.40;;;2.37;;
5841;SDS011;2947;52.276;9.946;2023-02-01T17:18:22;6.70;;;1.83;;
5841;SDS011;2947;52.276;9.946;2023-02-01T17:20:50;11.57;;;3.00;;
5841;SDS011;2947;52.276;9.946;2023-02-01T17:23:17;11.50;;;3.83;;
5841;SDS011;2947;52.276;9.946;2023-02-01T17:25:44;8.50;;;1.30;;
5841;SDS011;2947;52.276;9.946;2023-02-01T17:28:12;9.33;;;1.63;;
5841;SDS011;2947;52.276;9.946;2023-02-01T17:30:38;18.13;;;2.30;;
5841;SDS011;2947;52.276;9.946;2023-02-01T17:33:20;6.90;;;1.80;;
5841;SDS011;2947;52.276;9.946;2023-02-01T17:35:50;16.97;;;2.40;;
5841;SDS011;2947;52.276;9.946;2023-02-01T17:38:20;14.53;;;1.60;;
5841;SDS011;2947;52.276;9.946;2023-02-01T17:40:46;10.87;;;2.13;;
5841;SDS011;2947;52.276;9.946;2023-02-01T17:43:15;9.20;;;2.10;;
5841;SDS011;2947;52.276;9.946;2023-02-01T17:45:49;13.33;;;2.70;;
5841;SDS011;2947;52.276;9.946;2023-02-01T17:48:21;13.67;;;2.10;;
5841;SDS011;2947;52.276;9.946;2023-02-01T17:50:48;10.23;;;1.73;;
5841;SDS011;2947;52.276;9.946;2023-02-01T17:53:23;12.23;;;2.43;;
5841;SDS011;2947;52.276;9.946;2023-02-01T17:55:50;13.50;;;2.17;;
5841;SDS011;2947;52.276;9.946;2023-02-01T17:58:17;9.03;;;1.93;;
5841;SDS011;2947;52.276;9.946;2023-02-01T18:00:44;10.83;;;2.10;;
5841;SDS011;2947;52.276;9.946;2023-02-01T18:03:16;12.13;;;3.20;;
5841;SDS011;2947;52.276;9.946;2023-02-01T18:05:52;12.10;;;3.30;;
5841;SDS011;2947;52.276;9.946;2023-02-01T18:08:27;19.77;;;2.27;;
5841;SDS011;2947;52.276;9.946;2023-02-01T18:10:59;13.03;;;2.07;;
5841;SDS011;2947;52.276;9.946;2023-02-01T18:13:26;11.70;;;2.73;;